Skiros, Greece
Current Conditions -  °F | °C
As of 10:20 AM on Monday 26 Jan 2015 (Local Time) from LGSY Reporting Station
Scattered Clouds Scattered Clouds  
Wind Chill: 54°   Ceiling: Unl
Heat Index: 54°   Visibility: 6mi
Dew Point: 48°   Wind: 12mph
Humidity: 82%   Direction: 290°WNW
Pressure: 29.97"   Gusts: NA
Location:  38.9°N, 24.56°E
Report Text: LGSY 260720Z 29010KT 9999 SCT008 FEW016TCU SCT018 12/09 Q1015 RMK FEW080 BLU
Loading
Personal Weather Stations






























Interactive Weather Map New forecast layout! Learn more

10-Day Weather Forecast

Advertisements
Track Severe Weather on mobile